Time;durP1;ratioP1;P1;durP2;ratioP2;P2;SDS_P1;SDS_P2;PMS_P1;PMS_P2;Temp;Humidity;BMP_temperature;BMP_pressure;BME280_temperature;BME280_humidity;BME280_pressure;Samples;Min_cycle;Max_cycle;Signal;HPM_P1;HPM_P2
2021/09/18 00:00:29;;;;;;;0.50;0.50;;;16.00;95.30;;;;;;6304027;22;20005;-81
2021/09/18 00:02:55;;;;;;;0.60;0.40;;;15.90;95.00;;;;;;6303271;22;20048;-81
2021/09/18 00:05:20;;;;;;;0.70;0.40;;;15.90;94.90;;;;;;6304446;22;20022;-81
2021/09/18 00:07:46;;;;;;;0.55;0.40;;;15.90;94.90;;;;;;6303513;22;20004;-81
2021/09/18 00:10:11;;;;;;;1.10;0.50;;;15.80;95.10;;;;;;6304600;22;20002;-81
2021/09/18 00:12:37;;;;;;;0.70;0.45;;;15.80;95.00;;;;;;6303571;22;20034;-81
2021/09/18 00:15:04;;;;;;;2.25;0.40;;;15.70;94.80;;;;;;6304136;22;19999;-81
2021/09/18 00:17:30;;;;;;;0.80;0.50;;;15.70;94.90;;;;;;6303672;22;20003;-81
2021/09/18 00:19:56;;;;;;;1.77;0.63;;;15.70;95.00;;;;;;6275880;22;20000;-81
2021/09/18 00:22:21;;;;;;;4.22;0.50;;;15.70;95.10;;;;;;6303034;22;19995;-83
2021/09/18 00:24:47;;;;;;;0.50;0.50;;;15.70;95.20;;;;;;6304229;22;20078;-81
2021/09/18 00:27:12;;;;;;;0.80;0.50;;;15.70;95.30;;;;;;6276281;22;20323;-81
2021/09/18 00:29:37;;;;;;;0.55;0.50;;;15.70;95.40;;;;;;6303282;22;20014;-81
2021/09/18 00:32:04;;;;;;;0.50;0.50;;;15.70;95.40;;;;;;6303607;22;20003;-82
2021/09/18 00:34:29;;;;;;;0.70;0.50;;;15.70;95.60;;;;;;6276538;22;20004;-82
2021/09/18 00:36:55;;;;;;;2.17;0.60;;;15.80;95.70;;;;;;6276237;22;20428;-81
2021/09/18 00:39:20;;;;;;;3.58;0.70;;;15.80;95.70;;;;;;6303315;22;20052;-82
2021/09/18 00:41:46;;;;;;;3.40;0.60;;;15.70;95.60;;;;;;6303411;22;20003;-82
2021/09/18 00:44:17;;;;;;;1.67;0.40;;;15.70;95.70;;;;;;6303757;22;20007;-81
2021/09/18 00:46:47;;;;;;;0.65;0.50;;;15.80;95.60;;;;;;6275848;22;20414;-80
2021/09/18 00:49:13;;;;;;;1.25;0.47;;;15.80;95.70;;;;;;6303269;22;20011;-82
2021/09/18 00:51:39;;;;;;;2.17;0.68;;;15.70;95.70;;;;;;6302851;22;20326;-81
2021/09/18 00:54:07;;;;;;;2.95;0.60;;;15.70;95.80;;;;;;6276180;22;20333;-82
2021/09/18 00:56:32;;;;;;;1.15;0.70;;;15.80;95.90;;;;;;6303518;22;20003;-81
2021/09/18 00:58:58;;;;;;;1.15;0.75;;;15.70;95.80;;;;;;6303234;22;20002;-81
2021/09/18 01:01:23;;;;;;;1.15;0.70;;;15.70;96.10;;;;;;6302690;22;20607;-82
2021/09/18 01:03:49;;;;;;;2.95;0.95;;;15.70;96.10;;;;;;6303777;22;20027;-82
2021/09/18 01:06:15;;;;;;;0.68;0.65;;;15.80;96.00;;;;;;6276200;22;20100;-82
2021/09/18 01:08:41;;;;;;;1.50;0.80;;;15.70;95.90;;;;;;6302325;22;20376;-83
2021/09/18 01:11:07;;;;;;;4.43;0.90;;;15.70;96.10;;;;;;6302922;22;20034;-82
2021/09/18 01:13:34;;;;;;;1.00;0.75;;;15.70;96.10;;;;;;6302776;22;20014;-82
2021/09/18 01:16:00;;;;;;;3.70;0.70;;;15.70;96.20;;;;;;6303958;22;20298;-81
2021/09/18 01:18:25;;;;;;;2.67;0.90;;;15.60;96.30;;;;;;6302115;22;20192;-81
2021/09/18 01:20:51;;;;;;;3.58;1.13;;;15.60;96.10;;;;;;6301329;22;19992;-81
2021/09/18 01:23:23;;;;;;;0.90;0.68;;;15.60;96.00;;;;;;6303355;22;20003;-82
2021/09/18 01:25:49;;;;;;;1.88;0.70;;;15.60;96.00;;;;;;6303365;22;20003;-82
2021/09/18 01:28:15;;;;;;;1.13;0.60;;;15.50;96.30;;;;;;6302513;22;20479;-81
2021/09/18 01:30:41;;;;;;;3.70;0.73;;;15.60;96.40;;;;;;6302629;22;20045;-82
2021/09/18 01:33:07;;;;;;;0.73;0.50;;;15.60;96.10;;;;;;6302398;22;20003;-82
2021/09/18 01:35:33;;;;;;;3.28;0.90;;;15.60;96.10;;;;;;6303060;22;20488;-81
2021/09/18 01:37:59;;;;;;;1.80;0.65;;;15.60;96.20;;;;;;6302719;22;20317;-81
2021/09/18 01:40:27;;;;;;;2.58;0.50;;;15.60;96.20;;;;;;6303075;22;20002;-81
2021/09/18 01:42:54;;;;;;;0.70;0.60;;;15.50;96.30;;;;;;6275017;22;20597;-82
2021/09/18 01:45:20;;;;;;;1.15;0.60;;;15.50;96.10;;;;;;6303609;22;19999;-82
2021/09/18 01:47:57;;;;;;;0.80;0.57;;;15.50;96.40;;;;;;6301795;22;20057;-82
2021/09/18 01:50:40;;;;;;;2.58;0.60;;;15.50;96.50;;;;;;6303765;22;20425;-82
2021/09/18 01:53:07;;;;;;;2.90;1.00;;;15.50;96.40;;;;;;6302816;22;20003;-81
2021/09/18 01:55:34;;;;;;;0.77;0.52;;;15.50;96.40;;;;;;6303504;22;20031;-82
2021/09/18 01:58:00;;;;;;;0.98;0.73;;;15.50;96.60;;;;;;6301897;22;20385;-83
2021/09/18 02:00:26;;;;;;;1.48;0.52;;;15.50;96.20;;;;;;6303079;22;20002;-81
2021/09/18 02:02:52;;;;;;;1.95;0.60;;;15.50;95.90;;;;;;6303171;22;20025;-81
2021/09/18 02:05:26;;;;;;;1.98;0.65;;;15.50;95.90;;;;;;6303963;22;20082;-82
2021/09/18 02:07:53;;;;;;;2.45;0.45;;;15.50;95.90;;;;;;6304121;22;20359;-81
2021/09/18 02:10:22;;;;;;;1.20;0.70;;;15.50;95.80;;;;;;6302417;22;20325;-82
2021/09/18 02:12:48;;;;;;;0.90;0.60;;;15.50;95.50;;;;;;6302773;22;20014;-83
2021/09/18 02:15:16;;;;;;;2.38;0.80;;;15.60;95.30;;;;;;6303720;22;20010;-81
2021/09/18 02:17:42;;;;;;;2.40;0.65;;;15.60;95.30;;;;;;6302310;22;20013;-82
2021/09/18 02:20:11;;;;;;;0.95;0.50;;;15.60;95.40;;;;;;6304221;22;19995;-82
2021/09/18 02:22:37;;;;;;;0.98;0.47;;;15.60;95.20;;;;;;6303598;22;20010;-82
2021/09/18 02:25:04;;;;;;;0.98;0.68;;;15.60;95.20;;;;;;6303493;22;20007;-81
2021/09/18 02:27:30;;;;;;;0.50;0.40;;;15.60;95.40;;;;;;6302267;22;20087;-81
2021/09/18 02:29:55;;;;;;;0.88;0.52;;;15.60;95.40;;;;;;6275352;22;20031;-81
2021/09/18 02:32:21;;;;;;;1.40;0.85;;;15.50;95.20;;;;;;6302731;22;20002;-81
2021/09/18 02:34:46;;;;;;;2.95;0.93;;;15.60;95.20;;;;;;6303078;22;20015;-81
2021/09/18 02:37:12;;;;;;;2.50;0.60;;;15.60;95.00;;;;;;6303053;22;20068;-80
2021/09/18 02:39:37;;;;;;;0.80;0.65;;;15.60;95.40;;;;;;6302147;22;19999;-81
2021/09/18 02:42:03;;;;;;;0.70;0.50;;;15.50;95.30;;;;;;6302182;22;20006;-81
2021/09/18 02:44:28;;;;;;;2.13;0.50;;;15.50;95.50;;;;;;6302611;22;20018;-82
2021/09/18 02:46:54;;;;;;;2.70;0.57;;;15.60;95.20;;;;;;6302355;22;20008;-81
2021/09/18 02:49:19;;;;;;;0.88;0.50;;;15.60;95.40;;;;;;6301422;22;19995;-81
2021/09/18 02:51:45;;;;;;;3.85;0.47;;;15.60;95.50;;;;;;6300834;22;20163;-81
2021/09/18 02:54:10;;;;;;;0.95;0.50;;;15.50;95.50;;;;;;6302958;22;20318;-81
2021/09/18 02:56:36;;;;;;;0.60;0.60;;;15.50;95.30;;;;;;6301022;22;20007;-81
2021/09/18 02:59:01;;;;;;;0.40;0.40;;;15.50;95.60;;;;;;6301950;22;20042;-82
2021/09/18 03:01:27;;;;;;;1.67;0.60;;;15.50;95.70;;;;;;6302473;22;20010;-80
2021/09/18 03:03:52;;;;;;;0.95;0.40;;;15.50;95.60;;;;;;6302224;22;20007;-81
2021/09/18 03:06:18;;;;;;;0.80;0.57;;;15.50;95.60;;;;;;6301969;22;20014;-81
2021/09/18 03:08:43;;;;;;;3.65;0.60;;;15.50;95.70;;;;;;6273722;22;20034;-81
2021/09/18 03:11:09;;;;;;;0.80;0.68;;;15.50;95.70;;;;;;6277015;22;19999;-79
2021/09/18 03:13:36;;;;;;;1.98;1.08;;;15.50;95.60;;;;;;6304165;22;20489;-80
2021/09/18 03:16:05;;;;;;;2.25;0.90;;;15.40;95.60;;;;;;6302894;22;20372;-80
2021/09/18 03:18:31;;;;;;;0.50;0.50;;;15.40;95.60;;;;;;6304401;22;20006;-81
2021/09/18 03:20:56;;;;;;;1.63;0.68;;;15.40;95.40;;;;;;6303844;22;19999;-82
2021/09/18 03:23:22;;;;;;;1.75;0.57;;;15.40;95.40;;;;;;6304503;22;20329;-82
2021/09/18 03:25:47;;;;;;;0.80;0.70;;;15.40;95.40;;;;;;6276968;22;20003;-81
2021/09/18 03:28:12;;;;;;;0.65;0.50;;;15.40;95.40;;;;;;6303854;22;20329;-80
2021/09/18 03:30:38;;;;;;;2.45;0.60;;;15.40;95.40;;;;;;6304562;22;19995;-82
2021/09/18 03:33:03;;;;;;;0.70;0.65;;;15.40;95.20;;;;;;6304279;22;20003;-81
2021/09/18 03:35:29;;;;;;;1.02;0.52;;;15.30;95.20;;;;;;6304244;22;20049;-81
2021/09/18 03:37:55;;;;;;;1.40;0.60;;;15.30;95.20;;;;;;6303927;22;19995;-82
2021/09/18 03:40:21;;;;;;;2.83;0.63;;;15.30;95.40;;;;;;6305809;22;20033;-82
2021/09/18 03:42:47;;;;;;;0.40;0.40;;;15.30;95.40;;;;;;6304603;22;20004;-81
2021/09/18 03:45:13;;;;;;;1.65;0.52;;;15.30;95.50;;;;;;6304563;22;20093;-82
2021/09/18 03:47:38;;;;;;;0.98;0.73;;;15.30;95.40;;;;;;6303422;22;20003;-82
2021/09/18 03:50:06;;;;;;;1.15;0.50;;;15.30;95.50;;;;;;6303651;22;20071;-81
2021/09/18 03:52:31;;;;;;;0.60;0.50;;;15.30;95.60;;;;;;6276448;22;20421;-81
2021/09/18 03:54:57;;;;;;;1.15;0.50;;;15.30;95.60;;;;;;6304132;22;20082;-83
2021/09/18 03:57:23;;;;;;;3.22;0.90;;;15.30;95.60;;;;;;6304436;22;20030;-81
2021/09/18 03:59:49;;;;;;;1.42;0.60;;;15.30;95.70;;;;;;6275900;22;20010;-82
2021/09/18 04:02:14;;;;;;;1.65;0.70;;;15.20;95.50;;;;;;6303809;22;19991;-81
2021/09/18 04:04:40;;;;;;;0.70;0.70;;;15.30;95.60;;;;;;6303914;22;20003;-81
2021/09/18 04:07:05;;;;;;;2.03;1.65;;;15.20;95.50;;;;;;6276720;22;20003;-82
2021/09/18 04:09:31;;;;;;;2.53;0.80;;;15.30;95.50;;;;;;6303444;22;19991;-81
2021/09/18 04:11:56;;;;;;;1.15;0.50;;;15.30;95.60;;;;;;6303936;22;19999;-82
2021/09/18 04:14:22;;;;;;;1.25;0.60;;;15.30;95.80;;;;;;6303952;22;20329;-80
2021/09/18 04:16:48;;;;;;;1.48;0.65;;;15.30;95.30;;;;;;6304263;22;20044;-81
2021/09/18 04:19:13;;;;;;;0.57;0.43;;;15.30;95.60;;;;;;6275449;22;20010;-81
2021/09/18 04:21:39;;;;;;;3.03;0.57;;;15.30;95.60;;;;;;6276100;22;20007;-81
2021/09/18 04:24:05;;;;;;;0.70;0.43;;;15.20;95.60;;;;;;6303740;22;20007;-82
2021/09/18 04:26:32;;;;;;;1.08;0.90;;;15.20;95.60;;;;;;6304009;22;20011;-80
2021/09/18 04:28:58;;;;;;;0.90;0.68;;;15.20;95.70;;;;;;6303461;22;20053;-81
2021/09/18 04:31:24;;;;;;;0.98;0.60;;;15.20;95.70;;;;;;6303551;22;20007;-80
2021/09/18 04:33:49;;;;;;;1.05;0.60;;;15.10;95.90;;;;;;6302269;22;20106;-81
2021/09/18 04:36:15;;;;;;;1.15;0.60;;;15.10;95.80;;;;;;6276677;22;20003;-81
2021/09/18 04:38:40;;;;;;;1.13;0.73;;;15.10;96.10;;;;;;6275434;22;20122;-81
2021/09/18 04:41:06;;;;;;;1.00;0.57;;;15.10;95.90;;;;;;6303086;22;20015;-81
2021/09/18 04:43:32;;;;;;;1.70;0.60;;;15.10;95.90;;;;;;6302528;22;19999;-81
2021/09/18 04:45:57;;;;;;;1.75;0.70;;;15.20;96.00;;;;;;6303589;22;20334;-81
2021/09/18 04:48:23;;;;;;;0.75;0.60;;;15.20;96.00;;;;;;6302711;22;20006;-81
2021/09/18 04:50:48;;;;;;;1.42;0.60;;;15.30;96.20;;;;;;6303164;22;19999;-82
2021/09/18 04:53:14;;;;;;;0.70;0.57;;;15.20;96.00;;;;;;6304406;22;20004;-81
2021/09/18 04:55:39;;;;;;;1.02;0.60;;;15.20;96.00;;;;;;6303161;22;20433;-82
2021/09/18 04:58:05;;;;;;;4.13;0.73;;;15.30;96.20;;;;;;6303011;22;20009;-82
2021/09/18 05:00:31;;;;;;;1.75;0.45;;;15.30;96.00;;;;;;6300852;22;20087;-81
2021/09/18 05:02:56;;;;;;;2.30;1.40;;;15.30;96.10;;;;;;6276086;22;20419;-81
2021/09/18 05:05:22;;;;;;;1.27;0.50;;;15.30;96.20;;;;;;6303456;22;20295;-82
2021/09/18 05:07:47;;;;;;;0.90;0.47;;;15.30;96.20;;;;;;6302323;22;20003;-82
2021/09/18 05:10:13;;;;;;;0.70;0.50;;;15.30;96.20;;;;;;6303432;22;20377;-81
2021/09/18 05:12:39;;;;;;;0.80;0.68;;;15.30;96.20;;;;;;6302882;22;20025;-81
2021/09/18 05:15:06;;;;;;;0.93;0.65;;;15.20;96.10;;;;;;6302823;22;19999;-80
2021/09/18 05:17:31;;;;;;;1.48;0.50;;;15.30;96.20;;;;;;6275215;22;19999;-81
2021/09/18 05:19:57;;;;;;;0.50;0.40;;;15.20;96.10;;;;;;6274892;22;20011;-81
2021/09/18 05:22:22;;;;;;;0.57;0.43;;;15.20;96.40;;;;;;6275422;22;20372;-81
2021/09/18 05:24:48;;;;;;;1.33;0.70;;;15.10;96.30;;;;;;6303257;22;20082;-81
2021/09/18 05:27:13;;;;;;;0.60;0.50;;;15.10;96.40;;;;;;6303844;22;20033;-81
2021/09/18 05:29:43;;;;;;;1.17;0.55;;;15.10;96.60;;;;;;6302146;22;20000;-82
2021/09/18 05:32:08;;;;;;;1.20;0.50;;;15.10;96.60;;;;;;6300545;22;20381;-80
2021/09/18 05:34:34;;;;;;;2.20;0.60;;;15.10;96.40;;;;;;6275426;22;20007;-80
2021/09/18 05:36:59;;;;;;;0.65;0.43;;;15.20;96.60;;;;;;6303088;22;20433;-82
2021/09/18 05:39:25;;;;;;;2.63;0.60;;;15.10;96.40;;;;;;6302446;22;20240;-82
2021/09/18 05:41:50;;;;;;;1.15;0.60;;;15.20;96.40;;;;;;6275291;22;19999;-81
2021/09/18 05:44:16;;;;;;;1.27;0.60;;;15.10;96.40;;;;;;6303139;22;20042;-81
2021/09/18 05:46:42;;;;;;;2.28;0.60;;;15.20;96.40;;;;;;6301718;22;20441;-81
2021/09/18 05:49:07;;;;;;;1.45;1.05;;;15.10;96.50;;;;;;6302301;22;20006;-83
2021/09/18 05:51:33;;;;;;;1.55;0.55;;;15.20;96.70;;;;;;6275511;22;20022;-85
2021/09/18 05:53:58;;;;;;;1.38;0.70;;;15.20;96.40;;;;;;6302697;22;20038;-82
2021/09/18 05:56:24;;;;;;;3.17;0.70;;;15.10;96.50;;;;;;6302926;22;20481;-83
2021/09/18 05:58:49;;;;;;;1.02;0.50;;;15.20;96.40;;;;;;6302635;22;20000;-82
2021/09/18 06:01:15;;;;;;;1.25;0.63;;;15.20;96.50;;;;;;6302633;22;19999;-83
2021/09/18 06:03:40;;;;;;;0.70;0.70;;;15.20;96.30;;;;;;6303049;22;20161;-82
2021/09/18 06:06:06;;;;;;;2.78;0.63;;;15.20;96.60;;;;;;6302200;22;20003;-83
2021/09/18 06:08:31;;;;;;;1.10;0.60;;;15.20;96.50;;;;;;6302053;22;20428;-82
2021/09/18 06:10:57;;;;;;;1.67;0.52;;;15.10;96.50;;;;;;6302560;22;20004;-82
2021/09/18 06:13:22;;;;;;;1.30;0.68;;;15.20;96.40;;;;;;6302467;22;20414;-81
2021/09/18 06:15:48;;;;;;;5.35;0.50;;;15.20;96.60;;;;;;6275709;22;20030;-80
2021/09/18 06:18:13;;;;;;;4.25;0.80;;;15.20;96.50;;;;;;6302070;22;20042;-81
2021/09/18 06:20:39;;;;;;;0.93;0.68;;;15.30;96.50;;;;;;6302721;22;20325;-82
2021/09/18 06:23:04;;;;;;;1.23;0.50;;;15.30;96.50;;;;;;6303231;22;20000;-82
2021/09/18 06:25:30;;;;;;;0.50;0.50;;;15.30;96.20;;;;;;6275117;22;20003;-82
2021/09/18 06:27:55;;;;;;;3.47;0.80;;;15.30;96.30;;;;;;6302079;22;20014;-83
2021/09/18 06:30:21;;;;;;;2.15;0.65;;;15.30;96.40;;;;;;6302487;22;20360;-81
2021/09/18 06:32:46;;;;;;;0.95;0.50;;;15.30;96.80;;;;;;6302891;22;20852;-82
2021/09/18 06:35:12;;;;;;;1.15;0.47;;;15.30;96.40;;;;;;6303122;22;20018;-82
2021/09/18 06:37:45;;;;;;;0.82;0.50;;;15.30;96.00;;;;;;6302917;22;20418;-82
2021/09/18 06:40:13;;;;;;;1.92;0.55;;;15.40;96.30;;;;;;6303079;22;20002;-81
2021/09/18 06:42:39;;;;;;;1.33;0.68;;;15.40;96.10;;;;;;6301303;22;20010;-82
2021/09/18 06:45:06;;;;;;;1.70;0.68;;;15.40;96.20;;;;;;6278350;22;20527;-81
2021/09/18 06:47:32;;;;;;;1.08;0.60;;;15.40;96.10;;;;;;6302989;22;20007;-82
2021/09/18 06:49:57;;;;;;;1.08;0.70;;;15.50;96.20;;;;;;6302690;22;20003;-81
2021/09/18 06:52:23;;;;;;;0.73;0.60;;;15.50;96.00;;;;;;6275450;22;20000;-81
2021/09/18 06:54:48;;;;;;;1.67;0.70;;;15.60;95.90;;;;;;6303673;22;20011;-82
2021/09/18 06:57:14;;;;;;;0.73;0.57;;;15.60;96.00;;;;;;6303788;22;20474;-82
2021/09/18 06:59:39;;;;;;;1.70;0.50;;;15.70;96.10;;;;;;6304206;22;19992;-81
2021/09/18 07:02:08;;;;;;;1.27;0.75;;;15.70;95.90;;;;;;6303784;22;19999;-81
2021/09/18 07:04:34;;;;;;;1.35;0.40;;;15.70;95.70;;;;;;6304806;22;20007;-81
2021/09/18 07:06:59;;;;;;;4.95;0.90;;;15.70;95.60;;;;;;6303131;22;20004;-82
2021/09/18 07:09:25;;;;;;;4.97;0.60;;;15.80;95.70;;;;;;6304283;22;20060;-81
2021/09/18 07:11:50;;;;;;;1.50;1.00;;;15.80;95.70;;;;;;6303270;22;20341;-81
2021/09/18 07:14:16;;;;;;;0.98;0.60;;;15.90;95.60;;;;;;6303689;22;20026;-81
2021/09/18 07:16:41;;;;;;;2.38;0.70;;;15.90;95.60;;;;;;6302599;22;20011;-82
2021/09/18 07:19:07;;;;;;;2.25;0.73;;;16.00;95.30;;;;;;6301647;22;20023;-81
2021/09/18 07:21:32;;;;;;;1.98;1.38;;;15.90;95.20;;;;;;6302487;22;20013;-80
2021/09/18 07:23:58;;;;;;;2.28;0.60;;;15.90;95.20;;;;;;6302594;22;20007;-81
2021/09/18 07:26:23;;;;;;;1.88;0.80;;;15.90;95.20;;;;;;6301868;22;20085;-81
2021/09/18 07:28:49;;;;;;;1.75;0.93;;;15.90;95.40;;;;;;6302145;22;20078;-80
2021/09/18 07:31:14;;;;;;;1.08;0.70;;;15.90;95.20;;;;;;6302417;22;20377;-81
2021/09/18 07:33:40;;;;;;;4.30;1.20;;;15.90;95.30;;;;;;6302965;22;20596;-82
2021/09/18 07:36:05;;;;;;;3.58;1.45;;;15.90;95.40;;;;;;6300587;22;20081;-81
2021/09/18 07:38:31;;;;;;;3.72;0.70;;;15.90;95.80;;;;;;6274212;22;20003;-81
2021/09/18 07:40:56;;;;;;;4.57;0.90;;;15.90;95.80;;;;;;6301836;22;20422;-81
2021/09/18 07:43:23;;;;;;;1.17;0.70;;;15.90;95.80;;;;;;6274696;22;20015;-81
2021/09/18 07:45:49;;;;;;;1.00;0.82;;;15.90;95.70;;;;;;6302594;22;20396;-81
2021/09/18 07:48:15;;;;;;;1.77;1.10;;;15.90;95.90;;;;;;6299978;22;20003;-81
2021/09/18 07:50:40;;;;;;;1.27;1.10;;;15.80;96.10;;;;;;6274651;22;20060;-81
2021/09/18 07:53:07;;;;;;;2.25;1.17;;;15.70;96.20;;;;;;6275029;22;20086;-80
2021/09/18 07:55:33;;;;;;;2.30;1.30;;;15.60;96.40;;;;;;6303088;22;20011;-81
2021/09/18 07:57:59;;;;;;;2.75;1.23;;;15.60;96.40;;;;;;6303627;22;20357;-82
2021/09/18 08:00:24;;;;;;;7.88;1.00;;;15.60;96.50;;;;;;6303464;22;19999;-82
2021/09/18 08:02:52;;;;;;;3.60;0.90;;;15.60;96.90;;;;;;6303955;22;20060;-81
2021/09/18 08:05:18;;;;;;;1.48;0.77;;;15.70;97.10;;;;;;6303999;22;20049;-82
2021/09/18 08:07:44;;;;;;;4.65;1.15;;;15.70;97.00;;;;;;6303246;22;20019;-82
2021/09/18 08:10:13;;;;;;;3.10;1.23;;;15.70;97.30;;;;;;6303831;22;20030;-82
2021/09/18 08:12:39;;;;;;;0.93;0.80;;;15.70;97.40;;;;;;6303832;22;20298;-82
2021/09/18 08:15:06;;;;;;;2.08;1.08;;;15.70;97.60;;;;;;6276875;22;20003;-81
2021/09/18 08:17:32;;;;;;;1.17;0.98;;;15.70;97.90;;;;;;6275546;22;20413;-82
2021/09/18 08:19:57;;;;;;;1.80;1.17;;;15.60;98.10;;;;;;6304162;22;19999;-82
2021/09/18 08:22:23;;;;;;;2.92;1.35;;;15.60;98.10;;;;;;6275543;22;20042;-82
2021/09/18 08:24:48;;;;;;;1.83;1.00;;;15.60;98.10;;;;;;6276682;22;20010;-83
2021/09/18 08:27:14;;;;;;;3.10;1.00;;;15.60;98.10;;;;;;6304211;22;20398;-83
2021/09/18 08:29:39;;;;;;;7.90;1.27;;;15.60;98.10;;;;;;6303267;22;20003;-83
2021/09/18 08:32:05;;;;;;;2.15;1.48;;;15.60;97.80;;;;;;6301902;22;20352;-81
2021/09/18 08:34:31;;;;;;;3.40;1.50;;;15.60;98.10;;;;;;6303188;22;20008;-82
2021/09/18 08:36:56;;;;;;;2.00;1.80;;;15.60;98.00;;;;;;6276601;22;20031;-84
2021/09/18 08:39:21;;;;;;;2.97;1.88;;;15.60;98.40;;;;;;6303530;22;20481;-82
2021/09/18 08:41:48;;;;;;;4.53;1.77;;;15.60;98.70;;;;;;6303437;22;20045;-81
2021/09/18 08:44:15;;;;;;;2.53;2.33;;;15.60;99.10;;;;;;6304303;22;20014;-82
2021/09/18 08:46:41;;;;;;;4.13;2.40;;;15.70;98.70;;;;;;6303016;22;20065;-83
2021/09/18 08:49:09;;;;;;;2.28;1.98;;;15.60;99.10;;;;;;6303237;22;20042;-81
2021/09/18 08:51:35;;;;;;;3.08;2.30;;;15.60;99.30;;;;;;6302607;22;20007;-81
2021/09/18 08:54:01;;;;;;;2.35;1.95;;;15.70;99.60;;;;;;6303839;22;20080;-82
2021/09/18 08:56:26;;;;;;;2.22;2.03;;;15.70;99.30;;;;;;6303330;22;20007;-82
2021/09/18 08:58:51;;;;;;;5.70;2.40;;;15.80;99.00;;;;;;6302749;22;20418;-82
2021/09/18 09:01:18;;;;;;;3.28;2.35;;;15.80;98.70;;;;;;6303443;22;20004;-82
2021/09/18 09:03:44;;;;;;;4.07;1.88;;;15.90;98.60;;;;;;6276313;22;20086;-82
2021/09/18 09:06:11;;;;;;;4.50;2.63;;;15.80;98.60;;;;;;6276006;22;20035;-83
2021/09/18 09:08:40;;;;;;;2.10;1.70;;;15.80;98.60;;;;;;6301930;22;20046;-82
2021/09/18 09:11:27;;;;;;;2.30;1.98;;;15.80;99.00;;;;;;6302044;22;20317;-82
2021/09/18 09:13:55;;;;;;;1.90;1.80;;;15.90;98.90;;;;;;6302224;22;20011;-82
2021/09/18 09:16:21;;;;;;;2.50;2.30;;;16.00;98.50;;;;;;6302981;22;19995;-82
2021/09/18 09:18:47;;;;;;;3.60;1.88;;;16.00;98.60;;;;;;6302803;22;20056;-82
2021/09/18 09:21:22;;;;;;;2.65;2.05;;;16.00;98.40;;;;;;6301583;22;20613;-82
2021/09/18 09:24:13;;;;;;;2.30;2.10;;;16.00;98.40;;;;;;6303177;22;20300;-82
2021/09/18 09:26:42;;;;;;;1.92;1.75;;;16.00;98.60;;;;;;6275096;22;20072;-82
2021/09/18 09:29:08;;;;;;;2.95;2.30;;;15.90;98.60;;;;;;6302164;22;20010;-82
2021/09/18 09:31:39;;;;;;;3.65;2.20;;;15.90;98.80;;;;;;6275620;22;20023;-82
2021/09/18 09:34:15;;;;;;;2.25;2.05;;;15.90;99.10;;;;;;6275730;22;20007;-82
2021/09/18 09:36:48;;;;;;;2.97;2.30;;;15.80;99.20;;;;;;6303284;22;20086;-82
2021/09/18 09:39:14;;;;;;;;;;;15.80;99.40;;;;;;6303450;22;20372;-83
2021/09/18 09:41:46;;;;;;;2.40;2.20;;;15.80;99.50;;;;;;6275277;22;19903;-81
2021/09/18 09:44:24;;;;;;;2.47;2.33;;;15.70;99.60;;;;;;6303558;22;20003;-82
2021/09/18 09:47:07;;;;;;;2.10;1.90;;;15.70;99.80;;;;;;6302900;22;20007;-82
2021/09/18 09:49:53;;;;;;;4.13;2.88;;;15.70;99.90;;;;;;6302730;22;19995;-81
2021/09/18 09:52:30;;;;;;;2.40;2.20;;;15.60;99.90;;;;;;6274835;22;20437;-81
2021/09/18 09:55:01;;;;;;;2.10;1.85;;;15.60;99.90;;;;;;6303506;22;20049;-81
2021/09/18 09:57:27;;;;;;;3.97;2.10;;;15.60;99.90;;;;;;6302894;22;20029;-82
2021/09/18 10:00:05;;;;;;;2.72;2.10;;;15.60;99.90;;;;;;6302192;22;20027;-84
2021/09/18 10:02:31;;;;;;;1.90;1.80;;;15.70;99.90;;;;;;6275209;22;20314;-82
2021/09/18 10:04:56;;;;;;;1.67;1.58;;;15.80;99.90;;;;;;6302707;22;20068;-81
2021/09/18 10:07:22;;;;;;;1.50;1.30;;;15.90;99.90;;;;;;6303186;22;20086;-85
2021/09/18 10:09:48;;;;;;;1.92;1.30;;;16.00;99.90;;;;;;6274630;22;20090;-81
2021/09/18 10:12:15;;;;;;;1.60;1.50;;;16.10;99.90;;;;;;6302931;22;20322;-82
2021/09/18 10:14:48;;;;;;;1.30;1.20;;;16.10;99.90;;;;;;6303187;22;20017;-82
2021/09/18 10:17:15;;;;;;;1.42;1.20;;;16.10;99.90;;;;;;6302874;22;20418;-83
2021/09/18 10:19:53;;;;;;;1.73;1.33;;;16.20;99.90;;;;;;6274781;22;20485;-82
2021/09/18 10:25:06;;;;;;;1.40;1.30;;;16.30;99.90;;;;;;6302831;22;20054;-81
2021/09/18 10:27:32;;;;;;;1.30;1.20;;;16.40;99.90;;;;;;6274649;22;20015;-80
2021/09/18 10:29:57;;;;;;;2.08;1.63;;;16.30;99.90;;;;;;6302567;22;20455;-80
2021/09/18 10:32:24;;;;;;;2.97;1.52;;;16.30;99.90;;;;;;6302163;22;19996;-80
2021/09/18 10:35:10;;;;;;;2.80;1.35;;;16.30;99.90;;;;;;6302802;22;20400;-80
2021/09/18 10:37:37;;;;;;;2.05;1.85;;;16.30;99.90;;;;;;6301964;22;20019;-80
2021/09/18 10:40:11;;;;;;;1.80;1.70;;;16.20;99.90;;;;;;6302588;22;20437;-79
2021/09/18 10:42:40;;;;;;;1.63;1.52;;;16.20;99.90;;;;;;6275077;22;20018;-79
2021/09/18 10:45:07;;;;;;;1.98;1.80;;;16.10;99.90;;;;;;6274755;22;20038;-80
2021/09/18 10:47:52;;;;;;;2.65;2.15;;;16.10;99.90;;;;;;6301569;22;20050;-79
2021/09/18 10:50:26;;;;;;;3.22;2.08;;;16.10;99.90;;;;;;6302656;22;20066;-80
2021/09/18 10:53:12;;;;;;;2.30;2.10;;;16.00;99.90;;;;;;6274685;22;20440;-80
2021/09/18 10:55:56;;;;;;;2.50;2.30;;;16.10;99.90;;;;;;6302619;22;20002;-79
2021/09/18 10:58:24;;;;;;;4.20;3.03;;;16.20;99.90;;;;;;6302064;22;20002;-81
2021/09/18 11:00:53;;;;;;;2.90;2.67;;;16.20;99.90;;;;;;6300602;22;20094;-80
2021/09/18 11:03:33;;;;;;;3.55;3.25;;;16.20;99.90;;;;;;6302372;22;20402;-80
2021/09/18 11:05:59;;;;;;;4.85;3.30;;;16.30;99.90;;;;;;6302945;22;20137;-80
2021/09/18 11:08:27;;;;;;;4.32;3.72;;;16.30;99.90;;;;;;6301478;22;20026;-80
2021/09/18 11:10:59;;;;;;;4.53;3.72;;;16.40;99.90;;;;;;6302403;22;20021;-80
2021/09/18 11:13:37;;;;;;;5.03;4.22;;;16.40;99.90;;;;;;6301299;22;20465;-80
2021/09/18 11:16:16;;;;;;;4.95;4.00;;;16.50;99.90;;;;;;6302789;22;20010;-78
2021/09/18 11:18:44;;;;;;;9.50;4.75;;;16.50;99.90;;;;;;6301643;22;20081;-79
2021/09/18 11:21:23;;;;;;;6.00;5.35;;;16.50;99.90;;;;;;6302119;22;20015;-79
2021/09/18 11:23:58;;;;;;;6.35;4.78;;;16.50;99.90;;;;;;6302671;22;20091;-80
2021/09/18 11:26:44;;;;;;;6.25;4.80;;;16.60;99.90;;;;;;6302517;22;20011;-80
2021/09/18 11:29:27;;;;;;;6.15;5.00;;;16.60;99.90;;;;;;6301882;22;20002;-79
2021/09/18 11:32:12;;;;;;;5.80;5.20;;;16.70;99.90;;;;;;6303745;22;20007;-80
2021/09/18 11:34:46;;;;;;;8.52;5.72;;;16.70;99.90;;;;;;6305455;22;20429;-77
2021/09/18 11:37:35;;;;;;;5.85;5.25;;;16.70;99.90;;;;;;6304884;22;19999;-80
2021/09/18 11:40:07;;;;;;;6.25;5.15;;;16.70;99.90;;;;;;6304607;22;19995;-80
2021/09/18 11:42:38;;;;;;;6.28;5.68;;;16.70;99.90;;;;;;6277069;22;20330;-80
2021/09/18 11:45:18;;;;;;;6.63;5.35;;;16.70;99.90;;;;;;6304962;22;20000;-80
2021/09/18 11:47:46;;;;;;;6.20;5.60;;;16.70;99.90;;;;;;6304010;22;20014;-80
2021/09/18 11:50:26;;;;;;;7.75;5.68;;;16.80;99.90;;;;;;6304378;22;19996;-80
2021/09/18 11:53:12;;;;;;;10.73;6.40;;;16.90;99.90;;;;;;6276831;22;20003;-81
2021/09/18 11:55:46;;;;;;;8.32;6.05;;;17.00;99.90;;;;;;6304526;22;20004;-79
2021/09/18 11:58:32;;;;;;;8.52;6.53;;;17.00;99.90;;;;;;6276563;22;20010;-80
2021/09/18 12:01:11;;;;;;;6.80;6.10;;;17.10;99.90;;;;;;6303675;22;20003;-80
2021/09/18 12:03:39;;;;;;;6.18;5.57;;;17.30;99.90;;;;;;6304400;22;19999;-80
2021/09/18 12:06:10;;;;;;;6.35;5.75;;;17.30;99.90;;;;;;6303980;22;20064;-81
2021/09/18 12:08:37;;;;;;;7.15;5.50;;;17.40;99.90;;;;;;6303243;22;20002;-80
2021/09/18 12:11:08;;;;;;;7.10;5.47;;;17.50;99.90;;;;;;6303902;22;20035;-81
2021/09/18 12:13:36;;;;;;;5.47;4.95;;;17.50;99.60;;;;;;6303035;22;20076;-79
2021/09/18 12:16:03;;;;;;;5.43;4.93;;;17.60;99.20;;;;;;6304096;22;20011;-80
2021/09/18 12:18:31;;;;;;;5.57;4.47;;;17.60;99.50;;;;;;6301573;22;19999;-81
2021/09/18 12:20:59;;;;;;;5.60;4.65;;;17.70;98.90;;;;;;6303792;22;19995;-80
2021/09/18 12:23:26;;;;;;;5.88;5.28;;;17.70;99.00;;;;;;6303722;22;20011;-80
2021/09/18 12:26:01;;;;;;;5.50;5.00;;;17.80;98.60;;;;;;6303328;22;20003;-80
2021/09/18 12:28:27;;;;;;;5.30;4.80;;;17.80;98.90;;;;;;6303242;22;20137;-81
2021/09/18 12:30:54;;;;;;;5.97;4.70;;;17.80;98.90;;;;;;6303551;22;20078;-81
2021/09/18 12:33:28;;;;;;;5.78;4.88;;;17.90;99.00;;;;;;6304245;22;20011;-81
2021/09/18 12:36:03;;;;;;;4.47;3.88;;;18.00;98.90;;;;;;6303856;22;20007;-82
2021/09/18 12:38:32;;;;;;;5.57;3.22;;;18.10;98.30;;;;;;6275853;22;20003;-80
2021/09/18 12:41:03;;;;;;;4.07;3.63;;;18.10;97.50;;;;;;6303704;22;20057;-81
2021/09/18 12:43:29;;;;;;;4.00;3.50;;;18.20;97.70;;;;;;6303591;22;20007;-81
2021/09/18 12:46:25;;;;;;;3.38;3.08;;;18.30;97.60;;;;;;6275823;22;20003;-81
2021/09/18 12:48:59;;;;;;;3.58;3.28;;;18.40;97.20;;;;;;6269698;22;20421;-81
2021/09/18 12:51:26;;;;;;;3.42;3.13;;;18.50;97.30;;;;;;6303617;22;20321;-82
2021/09/18 12:53:54;;;;;;;3.97;3.58;;;18.60;97.40;;;;;;6276177;22;20332;-81